sensor_id;sensor_type;location;lat;lon;timestamp;P1;durP1;ratioP1;P2;durP2;ratioP2
63906;SDS011;50075;49.484;11.238;2023-05-10T00:01:12;346.00;;;81.33;;
63906;SDS011;50075;49.484;11.238;2023-05-10T00:03:37;352.30;;;82.40;;
63906;SDS011;50075;49.484;11.238;2023-05-10T00:06:03;353.65;;;83.03;;
63906;SDS011;50075;49.484;11.238;2023-05-10T00:08:28;327.83;;;81.97;;
63906;SDS011;50075;49.484;11.238;2023-05-10T00:10:53;341.07;;;81.70;;
63906;SDS011;50075;49.484;11.238;2023-05-10T00:13:18;381.00;;;81.97;;
63906;SDS011;50075;49.484;11.238;2023-05-10T00:15:44;339.63;;;80.47;;
63906;SDS011;50075;49.484;11.238;2023-05-10T00:18:09;364.33;;;82.05;;
63906;SDS011;50075;49.484;11.238;2023-05-10T00:20:34;346.47;;;79.97;;
63906;SDS011;50075;49.484;11.238;2023-05-10T00:22:59;335.80;;;79.77;;
63906;SDS011;50075;49.484;11.238;2023-05-10T00:25:24;379.43;;;81.43;;
63906;SDS011;50075;49.484;11.238;2023-05-10T00:27:50;332.02;;;80.40;;
63906;SDS011;50075;49.484;11.238;2023-05-10T00:30:15;314.33;;;80.07;;
63906;SDS011;50075;49.484;11.238;2023-05-10T00:32:40;375.27;;;82.10;;
63906;SDS011;50075;49.484;11.238;2023-05-10T00:35:06;364.17;;;81.88;;
63906;SDS011;50075;49.484;11.238;2023-05-10T00:37:31;380.55;;;82.38;;
63906;SDS011;50075;49.484;11.238;2023-05-10T00:39:56;312.43;;;80.67;;
63906;SDS011;50075;49.484;11.238;2023-05-10T00:42:21;340.47;;;80.63;;
63906;SDS011;50075;49.484;11.238;2023-05-10T00:44:47;366.08;;;82.30;;
63906;SDS011;50075;49.484;11.238;2023-05-10T00:47:12;375.05;;;84.32;;
63906;SDS011;50075;49.484;11.238;2023-05-10T00:49:37;352.02;;;83.22;;
63906;SDS011;50075;49.484;11.238;2023-05-10T00:52:03;333.20;;;82.73;;
63906;SDS011;50075;49.484;11.238;2023-05-10T00:54:28;321.48;;;77.85;;
63906;SDS011;50075;49.484;11.238;2023-05-10T00:56:54;362.60;;;79.63;;
63906;SDS011;50075;49.484;11.238;2023-05-10T00:59:19;367.77;;;83.30;;
63906;SDS011;50075;49.484;11.238;2023-05-10T01:01:45;371.95;;;84.10;;
63906;SDS011;50075;49.484;11.238;2023-05-10T01:04:11;328.00;;;76.40;;
63906;SDS011;50075;49.484;11.238;2023-05-10T01:06:38;351.20;;;81.90;;
63906;SDS011;50075;49.484;11.238;2023-05-10T01:09:03;336.60;;;81.97;;
63906;SDS011;50075;49.484;11.238;2023-05-10T01:11:28;373.90;;;80.50;;
63906;SDS011;50075;49.484;11.238;2023-05-10T01:13:57;402.30;;;81.47;;
63906;SDS011;50075;49.484;11.238;2023-05-10T01:16:22;345.48;;;83.45;;
63906;SDS011;50075;49.484;11.238;2023-05-10T01:18:48;357.52;;;77.65;;
63906;SDS011;50075;49.484;11.238;2023-05-10T01:26:39;311.45;;;62.38;;
63906;SDS011;50075;49.484;11.238;2023-05-10T01:29:11;276.13;;;64.45;;
63906;SDS011;50075;49.484;11.238;2023-05-10T01:34:26;335.23;;;69.82;;
63906;SDS011;50075;49.484;11.238;2023-05-10T01:37:00;303.17;;;55.08;;
63906;SDS011;50075;49.484;11.238;2023-05-10T01:39:44;236.57;;;39.15;;
63906;SDS011;50075;49.484;11.238;2023-05-10T01:42:10;308.58;;;50.75;;
63906;SDS011;50075;49.484;11.238;2023-05-10T01:47:11;296.90;;;48.70;;
63906;SDS011;50075;49.484;11.238;2023-05-10T01:49:44;283.33;;;51.90;;
63906;SDS011;50075;49.484;11.238;2023-05-10T01:52:12;368.00;;;56.70;;
63906;SDS011;50075;49.484;11.238;2023-05-10T01:54:41;273.55;;;55.28;;
63906;SDS011;50075;49.484;11.238;2023-05-10T01:57:08;273.65;;;55.58;;
63906;SDS011;50075;49.484;11.238;2023-05-10T01:59:35;301.08;;;57.85;;
63906;SDS011;50075;49.484;11.238;2023-05-10T02:02:02;273.88;;;57.58;;
63906;SDS011;50075;49.484;11.238;2023-05-10T02:04:27;248.57;;;57.15;;
63906;SDS011;50075;49.484;11.238;2023-05-10T02:06:53;336.10;;;61.13;;
63906;SDS011;50075;49.484;11.238;2023-05-10T02:09:18;303.20;;;61.17;;
63906;SDS011;50075;49.484;11.238;2023-05-10T02:11:45;310.67;;;49.45;;
63906;SDS011;50075;49.484;11.238;2023-05-10T02:14:12;218.27;;;12.70;;
63906;SDS011;50075;49.484;11.238;2023-05-10T02:16:39;242.68;;;30.27;;
63906;SDS011;50075;49.484;11.238;2023-05-10T02:19:04;236.15;;;30.50;;
63906;SDS011;50075;49.484;11.238;2023-05-10T02:21:30;237.18;;;27.42;;
63906;SDS011;50075;49.484;11.238;2023-05-10T02:23:56;298.42;;;38.10;;
63906;SDS011;50075;49.484;11.238;2023-05-10T02:26:22;245.48;;;34.70;;
63906;SDS011;50075;49.484;11.238;2023-05-10T02:28:48;256.85;;;36.58;;
63906;SDS011;50075;49.484;11.238;2023-05-10T02:31:14;291.17;;;38.92;;
63906;SDS011;50075;49.484;11.238;2023-05-10T02:33:40;336.70;;;39.38;;
63906;SDS011;50075;49.484;11.238;2023-05-10T02:36:06;207.77;;;34.00;;
63906;SDS011;50075;49.484;11.238;2023-05-10T02:38:32;232.52;;;33.92;;
63906;SDS011;50075;49.484;11.238;2023-05-10T02:40:58;263.88;;;37.95;;
63906;SDS011;50075;49.484;11.238;2023-05-10T02:43:24;255.45;;;28.98;;
63906;SDS011;50075;49.484;11.238;2023-05-10T02:45:49;220.75;;;21.95;;
63906;SDS011;50075;49.484;11.238;2023-05-10T02:48:15;282.53;;;25.13;;
63906;SDS011;50075;49.484;11.238;2023-05-10T02:50:41;259.75;;;25.13;;
63906;SDS011;50075;49.484;11.238;2023-05-10T02:53:09;205.80;;;15.27;;
63906;SDS011;50075;49.484;11.238;2023-05-10T02:55:36;245.35;;;14.70;;
63906;SDS011;50075;49.484;11.238;2023-05-10T02:58:03;210.40;;;15.77;;
63906;SDS011;50075;49.484;11.238;2023-05-10T03:00:28;219.52;;;17.83;;
63906;SDS011;50075;49.484;11.238;2023-05-10T03:02:54;280.65;;;18.38;;
63906;SDS011;50075;49.484;11.238;2023-05-10T03:05:19;201.68;;;17.15;;
63906;SDS011;50075;49.484;11.238;2023-05-10T03:07:45;233.63;;;17.55;;
63906;SDS011;50075;49.484;11.238;2023-05-10T03:10:11;232.27;;;25.40;;
63906;SDS011;50075;49.484;11.238;2023-05-10T03:18:06;228.18;;;26.10;;
63906;SDS011;50075;49.484;11.238;2023-05-10T03:20:47;224.90;;;28.38;;
63906;SDS011;50075;49.484;11.238;2023-05-10T03:23:26;320.10;;;29.92;;
63906;SDS011;50075;49.484;11.238;2023-05-10T03:25:52;246.20;;;31.60;;
63906;SDS011;50075;49.484;11.238;2023-05-10T03:28:17;270.63;;;33.05;;
63906;SDS011;50075;49.484;11.238;2023-05-10T03:30:43;241.88;;;32.25;;
63906;SDS011;50075;49.484;11.238;2023-05-10T03:33:08;217.68;;;32.38;;
63906;SDS011;50075;49.484;11.238;2023-05-10T03:35:33;265.15;;;36.95;;
63906;SDS011;50075;49.484;11.238;2023-05-10T03:37:59;219.63;;;32.63;;
63906;SDS011;50075;49.484;11.238;2023-05-10T03:40:25;201.40;;;28.13;;
63906;SDS011;50075;49.484;11.238;2023-05-10T03:42:50;227.57;;;32.83;;
63906;SDS011;50075;49.484;11.238;2023-05-10T03:45:16;258.40;;;32.33;;
63906;SDS011;50075;49.484;11.238;2023-05-10T03:47:41;273.45;;;34.05;;
63906;SDS011;50075;49.484;11.238;2023-05-10T03:50:06;272.70;;;37.83;;
63906;SDS011;50075;49.484;11.238;2023-05-10T03:52:32;253.35;;;37.25;;
63906;SDS011;50075;49.484;11.238;2023-05-10T03:54:57;266.77;;;36.20;;
63906;SDS011;50075;49.484;11.238;2023-05-10T03:57:22;287.40;;;36.63;;
63906;SDS011;50075;49.484;11.238;2023-05-10T03:59:47;253.87;;;35.77;;
63906;SDS011;50075;49.484;11.238;2023-05-10T04:02:12;298.00;;;34.53;;
63906;SDS011;50075;49.484;11.238;2023-05-10T04:04:38;230.13;;;36.53;;
63906;SDS011;50075;49.484;11.238;2023-05-10T04:07:03;218.00;;;35.90;;
63906;SDS011;50075;49.484;11.238;2023-05-10T04:09:28;258.50;;;37.53;;
63906;SDS011;50075;49.484;11.238;2023-05-10T04:11:54;230.67;;;32.53;;
63906;SDS011;50075;49.484;11.238;2023-05-10T04:14:19;231.27;;;32.47;;
63906;SDS011;50075;49.484;11.238;2023-05-10T04:16:44;241.50;;;31.90;;
63906;SDS011;50075;49.484;11.238;2023-05-10T04:19:09;221.43;;;32.22;;
63906;SDS011;50075;49.484;11.238;2023-05-10T04:21:35;272.08;;;33.95;;
63906;SDS011;50075;49.484;11.238;2023-05-10T04:24:01;235.80;;;32.67;;
63906;SDS011;50075;49.484;11.238;2023-05-10T04:26:26;224.90;;;32.67;;
63906;SDS011;50075;49.484;11.238;2023-05-10T04:28:51;230.38;;;32.47;;
63906;SDS011;50075;49.484;11.238;2023-05-10T04:31:16;249.07;;;34.65;;
63906;SDS011;50075;49.484;11.238;2023-05-10T04:33:42;348.80;;;36.90;;
63906;SDS011;50075;49.484;11.238;2023-05-10T04:36:07;250.93;;;36.05;;
63906;SDS011;50075;49.484;11.238;2023-05-10T04:38:32;254.05;;;35.20;;
63906;SDS011;50075;49.484;11.238;2023-05-10T04:41:04;266.10;;;37.50;;
63906;SDS011;50075;49.484;11.238;2023-05-10T04:43:31;226.07;;;37.05;;
63906;SDS011;50075;49.484;11.238;2023-05-10T04:45:56;259.03;;;38.33;;
63906;SDS011;50075;49.484;11.238;2023-05-10T04:48:21;269.83;;;39.17;;
63906;SDS011;50075;49.484;11.238;2023-05-10T04:50:47;242.97;;;41.10;;
63906;SDS011;50075;49.484;11.238;2023-05-10T04:53:12;275.25;;;42.25;;
63906;SDS011;50075;49.484;11.238;2023-05-10T04:55:37;262.27;;;41.92;;
63906;SDS011;50075;49.484;11.238;2023-05-10T04:58:03;245.98;;;39.90;;
63906;SDS011;50075;49.484;11.238;2023-05-10T05:00:28;281.33;;;40.42;;
63906;SDS011;50075;49.484;11.238;2023-05-10T05:02:53;244.90;;;40.00;;
63906;SDS011;50075;49.484;11.238;2023-05-10T05:05:19;277.03;;;41.23;;
63906;SDS011;50075;49.484;11.238;2023-05-10T05:07:44;257.27;;;40.00;;
63906;SDS011;50075;49.484;11.238;2023-05-10T05:10:09;279.30;;;40.23;;
63906;SDS011;50075;49.484;11.238;2023-05-10T05:12:34;308.13;;;43.00;;
63906;SDS011;50075;49.484;11.238;2023-05-10T05:15:00;259.70;;;42.10;;
63906;SDS011;50075;49.484;11.238;2023-05-10T05:17:25;260.45;;;42.42;;
63906;SDS011;50075;49.484;11.238;2023-05-10T05:19:50;263.03;;;35.60;;
63906;SDS011;50075;49.484;11.238;2023-05-10T05:22:16;269.33;;;36.75;;
63906;SDS011;50075;49.484;11.238;2023-05-10T05:24:41;281.75;;;37.17;;
63906;SDS011;50075;49.484;11.238;2023-05-10T05:27:06;225.38;;;35.70;;
63906;SDS011;50075;49.484;11.238;2023-05-10T05:29:32;227.88;;;34.88;;
63906;SDS011;50075;49.484;11.238;2023-05-10T05:31:57;273.48;;;35.95;;
63906;SDS011;50075;49.484;11.238;2023-05-10T05:34:22;225.37;;;35.27;;
63906;SDS011;50075;49.484;11.238;2023-05-10T05:36:47;251.23;;;35.85;;
63906;SDS011;50075;49.484;11.238;2023-05-10T05:39:13;291.80;;;36.83;;
63906;SDS011;50075;49.484;11.238;2023-05-10T05:41:38;231.50;;;35.80;;
63906;SDS011;50075;49.484;11.238;2023-05-10T05:44:03;269.40;;;36.17;;
63906;SDS011;50075;49.484;11.238;2023-05-10T05:46:29;264.30;;;34.67;;
63906;SDS011;50075;49.484;11.238;2023-05-10T05:48:54;222.73;;;33.43;;
63906;SDS011;50075;49.484;11.238;2023-05-10T05:51:19;258.13;;;35.50;;
63906;SDS011;50075;49.484;11.238;2023-05-10T05:53:45;340.05;;;37.30;;
63906;SDS011;50075;49.484;11.238;2023-05-10T05:56:10;243.13;;;34.07;;
63906;SDS011;50075;49.484;11.238;2023-05-10T05:58:35;271.25;;;36.15;;
63906;SDS011;50075;49.484;11.238;2023-05-10T06:01:00;230.97;;;33.30;;
63906;SDS011;50075;49.484;11.238;2023-05-10T06:03:26;233.88;;;34.75;;
63906;SDS011;50075;49.484;11.238;2023-05-10T06:05:51;242.07;;;35.87;;
63906;SDS011;50075;49.484;11.238;2023-05-10T06:08:16;243.60;;;36.07;;
63906;SDS011;50075;49.484;11.238;2023-05-10T06:10:41;280.80;;;36.80;;
63906;SDS011;50075;49.484;11.238;2023-05-10T06:13:07;260.90;;;37.10;;
63906;SDS011;50075;49.484;11.238;2023-05-10T06:15:32;224.75;;;35.00;;
63906;SDS011;50075;49.484;11.238;2023-05-10T06:17:57;275.65;;;37.45;;
63906;SDS011;50075;49.484;11.238;2023-05-10T06:20:23;226.57;;;35.38;;
63906;SDS011;50075;49.484;11.238;2023-05-10T06:22:48;243.23;;;34.30;;
63906;SDS011;50075;49.484;11.238;2023-05-10T06:25:13;271.17;;;32.17;;
63906;SDS011;50075;49.484;11.238;2023-05-10T06:27:39;291.05;;;31.88;;
63906;SDS011;50075;49.484;11.238;2023-05-10T06:30:05;248.73;;;29.30;;
63906;SDS011;50075;49.484;11.238;2023-05-10T06:32:30;171.50;;;29.00;;
63906;SDS011;50075;49.484;11.238;2023-05-10T06:34:55;237.10;;;31.53;;
63906;SDS011;50075;49.484;11.238;2023-05-10T06:37:21;292.43;;;31.80;;
63906;SDS011;50075;49.484;11.238;2023-05-10T06:39:46;215.65;;;28.77;;
63906;SDS011;50075;49.484;11.238;2023-05-10T06:42:11;218.73;;;29.10;;
63906;SDS011;50075;49.484;11.238;2023-05-10T06:44:36;276.58;;;34.03;;
63906;SDS011;50075;49.484;11.238;2023-05-10T06:47:01;214.43;;;34.07;;
63906;SDS011;50075;49.484;11.238;2023-05-10T06:49:27;232.87;;;35.50;;
63906;SDS011;50075;49.484;11.238;2023-05-10T06:51:52;201.15;;;33.78;;
63906;SDS011;50075;49.484;11.238;2023-05-10T06:54:17;238.00;;;34.35;;
63906;SDS011;50075;49.484;11.238;2023-05-10T06:56:43;250.95;;;35.45;;
63906;SDS011;50075;49.484;11.238;2023-05-10T06:59:08;249.85;;;39.15;;
63906;SDS011;50075;49.484;11.238;2023-05-10T07:01:33;272.73;;;38.63;;
63906;SDS011;50075;49.484;11.238;2023-05-10T07:03:59;280.42;;;37.35;;
63906;SDS011;50075;49.484;11.238;2023-05-10T07:06:24;259.05;;;55.00;;
63906;SDS011;50075;49.484;11.238;2023-05-10T07:08:49;224.20;;;47.80;;
63906;SDS011;50075;49.484;11.238;2023-05-10T07:11:14;270.93;;;54.40;;
63906;SDS011;50075;49.484;11.238;2023-05-10T07:13:39;300.90;;;39.03;;
63906;SDS011;50075;49.484;11.238;2023-05-10T07:16:08;321.38;;;39.97;;
63906;SDS011;50075;49.484;11.238;2023-05-10T07:18:34;238.35;;;35.78;;
63906;SDS011;50075;49.484;11.238;2023-05-10T07:20:59;212.90;;;33.67;;
63906;SDS011;50075;49.484;11.238;2023-05-10T07:23:24;258.37;;;33.90;;
63906;SDS011;50075;49.484;11.238;2023-05-10T07:25:50;203.35;;;30.30;;
63906;SDS011;50075;49.484;11.238;2023-05-10T07:28:17;237.65;;;29.73;;
63906;SDS011;50075;49.484;11.238;2023-05-10T07:30:43;236.82;;;27.55;;
63906;SDS011;50075;49.484;11.238;2023-05-10T07:33:09;222.88;;;22.25;;
63906;SDS011;50075;49.484;11.238;2023-05-10T07:35:34;251.90;;;22.35;;
63906;SDS011;50075;49.484;11.238;2023-05-10T07:38:00;207.10;;;22.15;;
63906;SDS011;50075;49.484;11.238;2023-05-10T07:40:25;211.95;;;26.42;;
63906;SDS011;50075;49.484;11.238;2023-05-10T07:42:51;250.15;;;28.98;;
63906;SDS011;50075;49.484;11.238;2023-05-10T07:45:17;205.23;;;25.65;;
63906;SDS011;50075;49.484;11.238;2023-05-10T07:47:42;224.77;;;27.52;;
63906;SDS011;50075;49.484;11.238;2023-05-10T07:50:08;241.00;;;31.33;;
63906;SDS011;50075;49.484;11.238;2023-05-10T07:52:33;212.82;;;30.42;;
63906;SDS011;50075;49.484;11.238;2023-05-10T07:54:58;249.93;;;28.95;;
63906;SDS011;50075;49.484;11.238;2023-05-10T07:57:24;248.17;;;31.43;;
63906;SDS011;50075;49.484;11.238;2023-05-10T07:59:49;255.20;;;30.60;;
63906;SDS011;50075;49.484;11.238;2023-05-10T08:02:14;293.77;;;31.43;;
63906;SDS011;50075;49.484;11.238;2023-05-10T08:04:39;250.17;;;32.03;;
63906;SDS011;50075;49.484;11.238;2023-05-10T08:07:05;207.80;;;31.63;;
63906;SDS011;50075;49.484;11.238;2023-05-10T08:09:30;218.93;;;32.17;;
63906;SDS011;50075;49.484;11.238;2023-05-10T08:11:55;204.63;;;34.67;;
63906;SDS011;50075;49.484;11.238;2023-05-10T08:14:20;270.80;;;35.40;;
63906;SDS011;50075;49.484;11.238;2023-05-10T08:16:46;243.60;;;36.53;;
63906;SDS011;50075;49.484;11.238;2023-05-10T08:19:11;258.55;;;37.50;;
63906;SDS011;50075;49.484;11.238;2023-05-10T08:21:36;271.80;;;38.78;;
63906;SDS011;50075;49.484;11.238;2023-05-10T08:24:02;285.63;;;39.53;;
63906;SDS011;50075;49.484;11.238;2023-05-10T08:26:27;230.48;;;37.95;;
63906;SDS011;50075;49.484;11.238;2023-05-10T08:28:52;248.15;;;38.55;;
63906;SDS011;50075;49.484;11.238;2023-05-10T08:31:18;240.63;;;40.37;;
63906;SDS011;50075;49.484;11.238;2023-05-10T08:33:43;341.33;;;42.22;;
63906;SDS011;50075;49.484;11.238;2023-05-10T08:36:08;281.50;;;40.28;;
63906;SDS011;50075;49.484;11.238;2023-05-10T08:38:34;261.20;;;39.85;;
63906;SDS011;50075;49.484;11.238;2023-05-10T08:40:59;306.20;;;40.67;;
63906;SDS011;50075;49.484;11.238;2023-05-10T08:43:27;243.40;;;39.42;;
63906;SDS011;50075;49.484;11.238;2023-05-10T08:45:56;157.52;;;38.88;;
63906;SDS011;50075;49.484;11.238;2023-05-10T08:48:22;229.52;;;39.60;;
63906;SDS011;50075;49.484;11.238;2023-05-10T08:50:48;201.52;;;39.42;;
63906;SDS011;50075;49.484;11.238;2023-05-10T08:53:13;271.38;;;40.42;;
63906;SDS011;50075;49.484;11.238;2023-05-10T08:55:40;243.70;;;39.45;;
63906;SDS011;50075;49.484;11.238;2023-05-10T08:58:07;267.48;;;41.47;;
63906;SDS011;50075;49.484;11.238;2023-05-10T09:00:33;281.50;;;39.42;;
63906;SDS011;50075;49.484;11.238;2023-05-10T09:02:58;243.02;;;39.13;;
63906;SDS011;50075;49.484;11.238;2023-05-10T09:05:24;260.38;;;37.15;;
63906;SDS011;50075;49.484;11.238;2023-05-10T09:07:49;211.18;;;34.08;;
63906;SDS011;50075;49.484;11.238;2023-05-10T09:10:14;238.97;;;29.67;;
63906;SDS011;50075;49.484;11.238;2023-05-10T09:12:40;310.92;;;30.20;;
63906;SDS011;50075;49.484;11.238;2023-05-10T09:15:05;200.60;;;19.40;;
63906;SDS011;50075;49.484;11.238;2023-05-10T09:17:32;235.85;;;19.35;;
63906;SDS011;50075;49.484;11.238;2023-05-10T09:19:58;230.10;;;16.20;;
63906;SDS011;50075;49.484;11.238;2023-05-10T09:22:23;204.15;;;13.10;;
63906;SDS011;50075;49.484;11.238;2023-05-10T09:25:03;261.52;;;18.73;;
63906;SDS011;50075;49.484;11.238;2023-05-10T09:27:28;212.88;;;14.63;;
63906;SDS011;50075;49.484;11.238;2023-05-10T09:29:53;217.80;;;15.07;;
63906;SDS011;50075;49.484;11.238;2023-05-10T09:32:20;217.05;;;13.75;;
63906;SDS011;50075;49.484;11.238;2023-05-10T09:34:45;214.43;;;13.37;;
63906;SDS011;50075;49.484;11.238;2023-05-10T09:37:11;211.98;;;11.10;;
63906;SDS011;50075;49.484;11.238;2023-05-10T09:39:37;216.15;;;14.75;;
63906;SDS011;50075;49.484;11.238;2023-05-10T09:42:03;231.00;;;18.77;;
63906;SDS011;50075;49.484;11.238;2023-05-10T09:44:29;210.38;;;18.73;;
63906;SDS011;50075;49.484;11.238;2023-05-10T09:46:54;201.80;;;23.10;;
63906;SDS011;50075;49.484;11.238;2023-05-10T09:49:20;235.35;;;26.60;;
63906;SDS011;50075;49.484;11.238;2023-05-10T09:51:46;205.38;;;24.85;;
63906;SDS011;50075;49.484;11.238;2023-05-10T09:54:15;202.17;;;26.57;;
63906;SDS011;50075;49.484;11.238;2023-05-10T09:56:40;264.63;;;31.42;;
63906;SDS011;50075;49.484;11.238;2023-05-10T09:59:06;243.98;;;31.90;;
63906;SDS011;50075;49.484;11.238;2023-05-10T10:01:32;224.80;;;28.13;;
63906;SDS011;50075;49.484;11.238;2023-05-10T10:03:58;277.08;;;29.17;;
63906;SDS011;50075;49.484;11.238;2023-05-10T10:06:23;232.97;;;26.13;;
63906;SDS011;50075;49.484;11.238;2023-05-10T10:08:49;229.05;;;22.92;;
63906;SDS011;50075;49.484;11.238;2023-05-10T10:11:14;238.55;;;24.05;;
63906;SDS011;50075;49.484;11.238;2023-05-10T10:13:40;300.42;;;27.02;;
63906;SDS011;50075;49.484;11.238;2023-05-10T10:16:05;255.18;;;24.15;;
63906;SDS011;50075;49.484;11.238;2023-05-10T10:18:31;249.25;;;25.98;;
63906;SDS011;50075;49.484;11.238;2023-05-10T10:20:56;199.20;;;25.00;;
63906;SDS011;50075;49.484;11.238;2023-05-10T10:23:22;235.15;;;28.70;;
63906;SDS011;50075;49.484;11.238;2023-05-10T10:25:48;256.35;;;27.67;;
63906;SDS011;50075;49.484;11.238;2023-05-10T10:30:49;195.45;;;28.38;;
63906;SDS011;50075;49.484;11.238;2023-05-10T10:35:46;245.82;;;30.88;;
63906;SDS011;50075;49.484;11.238;2023-05-10T10:38:12;223.20;;;30.48;;
63906;SDS011;50075;49.484;11.238;2023-05-10T10:40:38;213.23;;;30.08;;
63906;SDS011;50075;49.484;11.238;2023-05-10T10:48:31;252.60;;;35.10;;
63906;SDS011;50075;49.484;11.238;2023-05-10T10:50:57;204.03;;;31.30;;
63906;SDS011;50075;49.484;11.238;2023-05-10T10:53:25;194.02;;;28.50;;
63906;SDS011;50075;49.484;11.238;2023-05-10T10:55:51;263.77;;;25.88;;
63906;SDS011;50075;49.484;11.238;2023-05-10T10:58:30;195.93;;;22.98;;
63906;SDS011;50075;49.484;11.238;2023-05-10T11:01:12;229.52;;;20.27;;
63906;SDS011;50075;49.484;11.238;2023-05-10T11:03:38;255.60;;;19.67;;
63906;SDS011;50075;49.484;11.238;2023-05-10T11:06:03;243.30;;;21.75;;
63906;SDS011;50075;49.484;11.238;2023-05-10T11:08:29;207.70;;;20.20;;
63906;SDS011;50075;49.484;11.238;2023-05-10T11:13:28;196.45;;;20.75;;
63906;SDS011;50075;49.484;11.238;2023-05-10T11:15:54;199.48;;;20.33;;
63906;SDS011;50075;49.484;11.238;2023-05-10T11:18:31;243.60;;;20.88;;
63906;SDS011;50075;49.484;11.238;2023-05-10T11:23:21;228.23;;;24.37;;
63906;SDS011;50075;49.484;11.238;2023-05-10T11:25:47;241.75;;;26.25;;
63906;SDS011;50075;49.484;11.238;2023-05-10T11:28:13;272.13;;;27.42;;
63906;SDS011;50075;49.484;11.238;2023-05-10T11:30:39;251.35;;;28.42;;
63906;SDS011;50075;49.484;11.238;2023-05-10T11:33:05;258.08;;;32.05;;
63906;SDS011;50075;49.484;11.238;2023-05-10T11:35:30;256.90;;;30.88;;
63906;SDS011;50075;49.484;11.238;2023-05-10T11:37:55;261.50;;;31.93;;
63906;SDS011;50075;49.484;11.238;2023-05-10T11:40:23;262.60;;;32.87;;
63906;SDS011;50075;49.484;11.238;2023-05-10T11:42:49;225.75;;;30.73;;
63906;SDS011;50075;49.484;11.238;2023-05-10T11:45:15;255.38;;;33.90;;
63906;SDS011;50075;49.484;11.238;2023-05-10T11:47:40;231.82;;;34.42;;
63906;SDS011;50075;49.484;11.238;2023-05-10T11:50:08;251.55;;;35.38;;
63906;SDS011;50075;49.484;11.238;2023-05-10T11:52:36;211.23;;;34.97;;
63906;SDS011;50075;49.484;11.238;2023-05-10T11:55:04;226.80;;;34.63;;
63906;SDS011;50075;49.484;11.238;2023-05-10T11:57:30;321.67;;;36.80;;
63906;SDS011;50075;49.484;11.238;2023-05-10T11:59:56;207.32;;;34.55;;
63906;SDS011;50075;49.484;11.238;2023-05-10T12:02:21;228.02;;;36.22;;
63906;SDS011;50075;49.484;11.238;2023-05-10T12:04:46;249.05;;;35.55;;
63906;SDS011;50075;49.484;11.238;2023-05-10T12:07:12;255.10;;;34.90;;
63906;SDS011;50075;49.484;11.238;2023-05-10T12:09:41;249.87;;;33.87;;
63906;SDS011;50075;49.484;11.238;2023-05-10T12:12:07;247.32;;;33.45;;
63906;SDS011;50075;49.484;11.238;2023-05-10T12:14:34;243.20;;;34.57;;
63906;SDS011;50075;49.484;11.238;2023-05-10T12:17:00;252.48;;;31.40;;
63906;SDS011;50075;49.484;11.238;2023-05-10T12:19:25;223.75;;;28.88;;
63906;SDS011;50075;49.484;11.238;2023-05-10T12:21:50;226.47;;;29.50;;
63906;SDS011;50075;49.484;11.238;2023-05-10T12:24:15;246.73;;;27.77;;
63906;SDS011;50075;49.484;11.238;2023-05-10T12:26:43;220.80;;;24.70;;
63906;SDS011;50075;49.484;11.238;2023-05-10T12:29:14;265.85;;;27.23;;
63906;SDS011;50075;49.484;11.238;2023-05-10T12:31:54;242.15;;;25.25;;
63906;SDS011;50075;49.484;11.238;2023-05-10T12:34:26;253.73;;;45.53;;
63906;SDS011;50075;49.484;11.238;2023-05-10T12:36:52;177.18;;;26.30;;
63906;SDS011;50075;49.484;11.238;2023-05-10T12:39:17;246.02;;;27.02;;
63906;SDS011;50075;49.484;11.238;2023-05-10T12:41:42;222.90;;;18.80;;
63906;SDS011;50075;49.484;11.238;2023-05-10T12:44:08;183.63;;;16.70;;
63906;SDS011;50075;49.484;11.238;2023-05-10T12:46:33;240.93;;;14.80;;
63906;SDS011;50075;49.484;11.238;2023-05-10T12:48:58;227.87;;;12.83;;
63906;SDS011;50075;49.484;11.238;2023-05-10T12:51:23;165.30;;;13.70;;
63906;SDS011;50075;49.484;11.238;2023-05-10T12:53:49;288.43;;;17.80;;
63906;SDS011;50075;49.484;11.238;2023-05-10T12:56:14;247.60;;;15.07;;
63906;SDS011;50075;49.484;11.238;2023-05-10T12:58:39;233.50;;;16.00;;
63906;SDS011;50075;49.484;11.238;2023-05-10T13:01:05;228.68;;;15.52;;
63906;SDS011;50075;49.484;11.238;2023-05-10T13:03:30;213.20;;;13.97;;
63906;SDS011;50075;49.484;11.238;2023-05-10T13:05:55;232.77;;;13.63;;
63906;SDS011;50075;49.484;11.238;2023-05-10T13:08:21;201.25;;;13.65;;
63906;SDS011;50075;49.484;11.238;2023-05-10T13:10:46;177.73;;;13.03;;
63906;SDS011;50075;49.484;11.238;2023-05-10T13:13:11;260.47;;;13.63;;
63906;SDS011;50075;49.484;11.238;2023-05-10T13:15:36;261.48;;;13.32;;
63906;SDS011;50075;49.484;11.238;2023-05-10T13:18:02;172.60;;;11.65;;
63906;SDS011;50075;49.484;11.238;2023-05-10T13:20:27;199.10;;;12.30;;
63906;SDS011;50075;49.484;11.238;2023-05-10T13:22:52;234.27;;;14.90;;
63906;SDS011;50075;49.484;11.238;2023-05-10T13:25:18;227.45;;;13.77;;
63906;SDS011;50075;49.484;11.238;2023-05-10T13:27:43;216.63;;;13.67;;
63906;SDS011;50075;49.484;11.238;2023-05-10T13:30:08;196.90;;;12.43;;
63906;SDS011;50075;49.484;11.238;2023-05-10T13:32:34;230.35;;;15.35;;
63906;SDS011;50075;49.484;11.238;2023-05-10T13:35:00;220.65;;;13.82;;
63906;SDS011;50075;49.484;11.238;2023-05-10T13:37:25;265.35;;;15.82;;
63906;SDS011;50075;49.484;11.238;2023-05-10T13:39:50;185.17;;;15.03;;
63906;SDS011;50075;49.484;11.238;2023-05-10T13:42:16;266.05;;;17.98;;
63906;SDS011;50075;49.484;11.238;2023-05-10T13:44:42;217.07;;;15.68;;
63906;SDS011;50075;49.484;11.238;2023-05-10T13:47:07;213.75;;;22.13;;
63906;SDS011;50075;49.484;11.238;2023-05-10T13:49:33;263.87;;;19.13;;
63906;SDS011;50075;49.484;11.238;2023-05-10T13:51:59;158.82;;;17.27;;
63906;SDS011;50075;49.484;11.238;2023-05-10T13:54:24;267.42;;;20.17;;
63906;SDS011;50075;49.484;11.238;2023-05-10T13:56:50;213.30;;;17.95;;
63906;SDS011;50075;49.484;11.238;2023-05-10T13:59:15;211.10;;;18.07;;
63906;SDS011;50075;49.484;11.238;2023-05-10T14:01:41;218.38;;;19.60;;
63906;SDS011;50075;49.484;11.238;2023-05-10T14:04:07;230.70;;;19.48;;
63906;SDS011;50075;49.484;11.238;2023-05-10T14:06:35;200.18;;;20.42;;
63906;SDS011;50075;49.484;11.238;2023-05-10T14:09:00;200.82;;;20.33;;
63906;SDS011;50075;49.484;11.238;2023-05-10T14:11:25;191.63;;;19.07;;
63906;SDS011;50075;49.484;11.238;2023-05-10T14:13:50;286.57;;;23.70;;
63906;SDS011;50075;49.484;11.238;2023-05-10T14:16:16;206.80;;;20.83;;
63906;SDS011;50075;49.484;11.238;2023-05-10T14:18:41;229.50;;;23.23;;
63906;SDS011;50075;49.484;11.238;2023-05-10T14:21:06;268.60;;;25.33;;